Time;durP1;ratioP1;P1;durP2;ratioP2;P2;SDS_P1;SDS_P2;PMS_P1;PMS_P2;Temp;Humidity;BMP_temperature;BMP_pressure;BME280_temperature;BME280_humidity;BME280_pressure;Samples;Min_cycle;Max_cycle;Signal;HPM_P1;HPM_P2
2022/10/12 00:01:44;;;;;;;;;;;9.50;99.90;;;;;;5083792;27;20321;-56
2022/10/12 00:04:10;;;;;;;;;;;9.50;99.90;;;;;;5118808;27;19947;-56
2022/10/12 00:06:35;;;;;;;;;;;9.50;99.90;;;;;;5068930;27;20077;-58
2022/10/12 00:09:00;;;;;;;;;;;9.60;99.90;;;;;;5119076;27;19974;-57
2022/10/12 00:11:27;;;;;;;;;;;9.60;99.90;;;;;;5068290;27;19915;-60
2022/10/12 00:13:53;;;;;;;;;;;9.60;99.90;;;;;;5125102;27;19912;-59
2022/10/12 00:16:19;;;;;;;;;;;9.50;99.90;;;;;;5059577;27;19913;-53
2022/10/12 00:18:48;;;;;;;;;;;9.50;99.90;;;;;;5042780;27;19967;-58
2022/10/12 00:21:14;;;;;;;;;;;9.50;99.90;;;;;;5086207;27;19913;-59
2022/10/12 00:23:41;;;;;;;;;;;9.50;99.90;;;;;;5022569;28;19920;-56
2022/10/12 00:26:09;;;;;;;;;;;9.40;99.90;;;;;;5084076;27;20281;-60
2022/10/12 00:28:35;;;;;;;;;;;9.50;99.90;;;;;;5022972;27;20294;-58
2022/10/12 00:31:01;;;;;;;;;;;9.40;99.90;;;;;;5073052;27;19918;-54
2022/10/12 00:33:27;;;;;;;;;;;9.40;99.90;;;;;;5036744;27;19909;-58
2022/10/12 00:35:53;;;;;;;;;;;9.40;99.90;;;;;;5058577;27;19915;-58
2022/10/12 00:38:22;;;;;;;;;;;9.40;99.90;;;;;;5049109;27;19928;-64
2022/10/12 00:40:48;;;;;;;;;;;9.40;99.90;;;;;;5048329;27;19959;-57
2022/10/12 00:43:27;;;;;;;;;;;9.30;99.90;;;;;;5060891;27;19948;-58
2022/10/12 00:45:53;;;;;;;;;;;9.30;99.90;;;;;;5044534;27;19919;-57
2022/10/12 00:48:18;;;;;;;;;;;9.20;99.90;;;;;;5063644;27;19962;-58
2022/10/12 00:50:44;;;;;;;;;;;9.20;99.90;;;;;;5030475;27;19960;-57
2022/10/12 00:53:15;;;;;;;;;;;9.10;99.90;;;;;;5077980;27;19978;-58
2022/10/12 00:55:46;;;;;;;;;;;9.10;99.90;;;;;;5029101;27;19920;-56
2022/10/12 00:58:12;;;;;;;;;;;9.10;99.90;;;;;;5079839;27;19944;-57
2022/10/12 01:00:38;;;;;;;;;;;9.10;99.90;;;;;;5029258;27;19992;-57
2022/10/12 01:03:05;;;;;;;;;;;9.10;99.90;;;;;;5080053;27;19912;-58
2022/10/12 01:05:30;;;;;;;;;;;9.10;99.90;;;;;;5022484;28;19999;-57
2022/10/12 01:07:55;;;;;;;;;;;9.10;99.90;;;;;;5088005;27;19909;-58
2022/10/12 01:10:21;;;;;;;;;;;9.10;99.90;;;;;;5020802;28;20399;-54
2022/10/12 01:12:48;;;;;;;;;;;9.10;99.90;;;;;;5087340;27;20278;-53
2022/10/12 01:15:13;;;;;;;;;;;9.10;99.90;;;;;;5022223;28;19963;-57
2022/10/12 01:17:52;;;;;;;;;;;9.10;99.90;;;;;;5042305;27;19944;-59
2022/10/12 01:20:36;;;;;;;;;;;9.00;99.90;;;;;;5021482;28;19967;-56
2022/10/12 01:23:17;;;;;;;;;;;9.00;99.90;;;;;;5048754;27;20062;-56
2022/10/12 01:25:49;;;;;;;;;;;9.10;99.90;;;;;;5002100;28;20712;-55
2022/10/12 01:28:38;;;;;;;;;;;9.10;99.90;;;;;;5081576;27;19904;-58
2022/10/12 01:31:24;;;;;;;;;;;9.10;99.90;;;;;;5001809;28;19921;-58
2022/10/12 01:33:56;;;;;;;;;;;9.20;99.90;;;;;;5058948;27;19907;-58
2022/10/12 01:36:29;;;;;;;;;;;9.20;99.90;;;;;;5125399;27;19908;-56
2022/10/12 01:38:59;;;;;;;;;;;9.20;99.90;;;;;;5059673;27;19905;-55
2022/10/12 01:41:34;;;;;;;;;;;9.20;99.90;;;;;;5125117;27;20590;-59
2022/10/12 01:43:59;;;;;;;;;;;9.20;99.90;;;;;;5060201;27;19909;-58
2022/10/12 01:46:25;;;;;;;;;;;9.20;99.90;;;;;;5123986;27;20337;-58
2022/10/12 01:48:51;;;;;;;;;;;9.10;99.90;;;;;;5065816;27;19909;-57
2022/10/12 01:51:28;;;;;;;;;;;9.10;99.90;;;;;;5120558;27;19915;-59
2022/10/12 01:54:07;;;;;;;;;;;9.10;99.90;;;;;;5070604;27;19913;-57
2022/10/12 01:56:39;;;;;;;;;;;9.00;99.90;;;;;;5124865;27;19934;-55
2022/10/12 01:59:04;;;;;;;;;;;9.00;99.90;;;;;;5069585;27;20028;-54
2022/10/12 02:01:45;;;;;;;;;;;9.00;99.90;;;;;;5114331;27;20430;-57
2022/10/12 02:04:10;;;;;;;;;;;9.00;99.90;;;;;;5072207;27;19952;-59
2022/10/12 02:06:43;;;;;;;;;;;9.00;99.90;;;;;;5111687;27;19967;-57
2022/10/12 02:09:12;;;;;;;;;;;9.00;99.90;;;;;;5081489;27;19979;-58
2022/10/12 02:11:40;;;;;;;;;;;9.00;99.90;;;;;;5105838;27;20316;-59
2022/10/12 02:14:13;;;;;;;;;;;9.00;99.90;;;;;;5091319;27;20424;-58
2022/10/12 02:16:42;;;;;;;;;;;9.10;99.90;;;;;;5099667;27;20259;-58
2022/10/12 02:19:09;;;;;;;;;;;9.00;99.90;;;;;;5092814;27;19909;-59
2022/10/12 02:21:35;;;;;;;;;;;9.00;99.90;;;;;;5088033;27;19929;-56
2022/10/12 02:24:03;;;;;;;;;;;9.00;99.90;;;;;;5110477;27;20373;-56
2022/10/12 02:26:30;;;;;;;;;;;9.00;99.90;;;;;;5075792;27;19908;-55
2022/10/12 02:28:56;;;;;;;;;;;9.00;99.90;;;;;;5116642;27;19995;-58
2022/10/12 02:31:35;;;;;;;;;;;8.90;99.90;;;;;;5066062;27;19919;-58
2022/10/12 02:34:22;;;;;;;;;;;8.90;99.90;;;;;;5116819;27;19958;-58
2022/10/12 02:36:56;;;;;;;;;;;8.90;99.90;;;;;;5065714;28;19915;-59
2022/10/12 02:39:24;;;;;;;;;;;8.90;99.90;;;;;;5116948;27;19907;-57
2022/10/12 02:41:51;;;;;;;;;;;9.00;99.90;;;;;;5068661;28;19907;-59
2022/10/12 02:44:20;;;;;;;;;;;8.90;99.90;;;;;;5116593;27;19909;-57
2022/10/12 02:46:47;;;;;;;;;;;9.00;99.90;;;;;;5066655;27;20349;-57
2022/10/12 02:49:13;;;;;;;;;;;9.00;99.90;;;;;;5118241;27;20285;-55
2022/10/12 02:51:39;;;;;;;;;;;8.90;99.90;;;;;;5063564;28;20554;-55
2022/10/12 02:54:05;;;;;;;;;;;8.90;99.90;;;;;;5125305;27;19966;-58
2022/10/12 02:56:30;;;;;;;;;;;9.00;99.90;;;;;;5057979;27;20015;-58
2022/10/12 02:58:59;;;;;;;;;;;9.00;99.90;;;;;;5124955;28;19911;-59
2022/10/12 03:01:24;;;;;;;;;;;9.00;99.90;;;;;;5061056;27;19909;-58
2022/10/12 03:03:50;;;;;;;;;;;8.90;99.90;;;;;;5129020;27;19907;-57
2022/10/12 03:06:15;;;;;;;;;;;8.90;99.90;;;;;;5075896;27;19922;-55
2022/10/12 03:08:41;;;;;;;;;;;8.90;99.90;;;;;;5116437;27;20350;-56
2022/10/12 03:11:07;;;;;;;;;;;8.90;99.90;;;;;;5099113;27;19956;-56
2022/10/12 03:13:33;;;;;;;;;;;8.90;99.90;;;;;;5115988;27;19911;-58
2022/10/12 03:16:06;;;;;;;;;;;8.90;99.90;;;;;;5102697;27;19931;-56
2022/10/12 03:18:33;;;;;;;;;;;8.80;99.90;;;;;;5030758;27;19932;-55
2022/10/12 03:20:59;;;;;;;;;;;8.80;99.90;;;;;;5040975;27;19913;-58
2022/10/12 03:23:24;;;;;;;;;;;8.80;99.90;;;;;;5070356;27;19969;-58
2022/10/12 03:25:50;;;;;;;;;;;8.70;99.90;;;;;;5031531;27;19913;-58
2022/10/12 03:28:15;;;;;;;;;;;8.70;99.90;;;;;;5081774;27;20042;-57
2022/10/12 03:30:42;;;;;;;;;;;8.70;99.90;;;;;;5030235;27;20321;-58
2022/10/12 03:33:07;;;;;;;;;;;8.60;99.90;;;;;;5082328;27;19944;-62
2022/10/12 03:35:32;;;;;;;;;;;8.60;99.90;;;;;;5024463;28;20414;-58
2022/10/12 03:37:58;;;;;;;;;;;8.50;99.90;;;;;;5088309;27;20556;-58
2022/10/12 03:40:23;;;;;;;;;;;8.50;99.90;;;;;;5022910;28;19909;-58
2022/10/12 03:42:49;;;;;;;;;;;8.50;99.90;;;;;;5088988;27;19911;-58
2022/10/12 03:45:14;;;;;;;;;;;8.40;99.90;;;;;;5022370;28;19954;-55
2022/10/12 03:47:40;;;;;;;;;;;8.40;99.90;;;;;;5076196;27;20014;-58
2022/10/12 03:50:05;;;;;;;;;;;8.30;99.90;;;;;;5035300;27;19916;-57
2022/10/12 03:52:31;;;;;;;;;;;8.30;99.90;;;;;;5061245;27;20029;-56
2022/10/12 03:54:56;;;;;;;;;;;8.30;99.90;;;;;;5050194;27;19962;-58
2022/10/12 03:57:22;;;;;;;;;;;8.30;99.90;;;;;;5048105;27;19914;-57
2022/10/12 03:59:47;;;;;;;;;;;8.20;99.90;;;;;;5063092;27;19955;-57
2022/10/12 04:02:12;;;;;;;;;;;8.20;99.90;;;;;;5032919;27;19920;-56
2022/10/12 04:04:38;;;;;;;;;;;8.10;99.90;;;;;;5078099;27;20538;-58
2022/10/12 04:07:03;;;;;;;;;;;8.10;99.90;;;;;;5028984;27;19907;-57
2022/10/12 04:09:29;;;;;;;;;;;8.10;99.90;;;;;;5079371;27;19909;-59
2022/10/12 04:11:54;;;;;;;;;;;8.00;99.90;;;;;;5024495;27;19962;-57
2022/10/12 04:14:20;;;;;;;;;;;8.10;99.90;;;;;;5084975;27;20004;-59
2022/10/12 04:16:45;;;;;;;;;;;8.00;99.90;;;;;;5023200;28;19909;-58
2022/10/12 04:19:11;;;;;;;;;;;8.00;99.90;;;;;;5086127;27;19907;-60
2022/10/12 04:21:36;;;;;;;;;;;8.00;99.90;;;;;;5022675;28;19995;-58
2022/10/12 04:24:02;;;;;;;;;;;8.00;99.90;;;;;;5082088;27;20310;-56
2022/10/12 04:26:27;;;;;;;;;;;8.00;99.90;;;;;;5027162;27;20467;-58
2022/10/12 04:28:53;;;;;;;;;;;8.00;99.90;;;;;;5068463;27;20328;-56
2022/10/12 04:31:18;;;;;;;;;;;8.00;99.90;;;;;;5041758;27;19917;-56
2022/10/12 04:33:44;;;;;;;;;;;8.00;99.90;;;;;;5053880;27;19907;-57
2022/10/12 04:36:09;;;;;;;;;;;8.00;99.90;;;;;;5055288;27;19909;-54
2022/10/12 04:38:35;;;;;;;;;;;8.00;99.90;;;;;;5040396;27;19909;-55
2022/10/12 04:41:00;;;;;;;;;;;8.00;99.90;;;;;;5069553;27;19909;-58
2022/10/12 04:43:26;;;;;;;;;;;8.00;99.90;;;;;;5029053;27;19916;-50
2022/10/12 04:45:55;;;;;;;;;;;8.00;99.90;;;;;;5080908;27;20442;-54
2022/10/12 04:48:21;;;;;;;;;;;8.00;99.90;;;;;;5028050;27;19919;-52
2022/10/12 04:50:46;;;;;;;;;;;8.00;99.90;;;;;;5080560;27;19924;-58
2022/10/12 04:53:12;;;;;;;;;;;8.00;99.90;;;;;;5022637;28;19909;-58
2022/10/12 04:55:37;;;;;;;;;;;7.90;99.90;;;;;;5086212;27;20042;-59
2022/10/12 04:58:03;;;;;;;;;;;7.90;99.90;;;;;;5022256;28;19921;-58
2022/10/12 05:00:28;;;;;;;;;;;7.90;99.90;;;;;;5086532;27;19980;-57
2022/10/12 05:02:54;;;;;;;;;;;7.90;99.90;;;;;;5021368;28;19909;-52
2022/10/12 05:05:19;;;;;;;;;;;7.90;99.90;;;;;;5076787;27;19919;-57
2022/10/12 05:07:44;;;;;;;;;;;7.90;99.90;;;;;;5031913;27;19915;-57
2022/10/12 05:10:10;;;;;;;;;;;7.80;99.90;;;;;;5062341;27;19911;-58
2022/10/12 05:12:35;;;;;;;;;;;7.80;99.90;;;;;;5045245;27;19993;-56
2022/10/12 05:15:01;;;;;;;;;;;7.80;99.90;;;;;;5049271;27;19984;-53
2022/10/12 05:17:26;;;;;;;;;;;7.80;99.90;;;;;;5066292;27;20465;-56
2022/10/12 05:19:52;;;;;;;;;;;7.80;99.90;;;;;;5111493;27;19907;-56
2022/10/12 05:22:17;;;;;;;;;;;7.70;99.90;;;;;;5074439;27;19914;-56
2022/10/12 05:24:43;;;;;;;;;;;7.70;99.90;;;;;;5117711;27;20679;-56
2022/10/12 05:27:08;;;;;;;;;;;7.70;99.90;;;;;;5086261;27;19909;-56
2022/10/12 05:29:33;;;;;;;;;;;7.70;99.90;;;;;;5026698;27;20020;-59
2022/10/12 05:31:59;;;;;;;;;;;7.70;99.90;;;;;;5081916;27;19952;-57
2022/10/12 05:34:24;;;;;;;;;;;7.70;99.90;;;;;;5021726;28;19916;-56
2022/10/12 05:36:50;;;;;;;;;;;7.70;99.90;;;;;;5085977;27;19942;-55
2022/10/12 05:39:15;;;;;;;;;;;7.70;99.90;;;;;;5021525;28;19908;-55
2022/10/12 05:41:41;;;;;;;;;;;7.70;99.90;;;;;;5083431;27;19914;-59
2022/10/12 05:44:06;;;;;;;;;;;7.70;99.90;;;;;;5023572;27;19920;-54
2022/10/12 05:46:32;;;;;;;;;;;7.70;99.90;;;;;;5069196;27;20407;-58
2022/10/12 05:48:57;;;;;;;;;;;7.70;99.90;;;;;;5044453;27;19992;-51
2022/10/12 05:51:23;;;;;;;;;;;7.70;99.90;;;;;;5063887;27;19926;-55
2022/10/12 05:53:48;;;;;;;;;;;7.70;99.90;;;;;;5124989;27;19960;-56
2022/10/12 05:56:13;;;;;;;;;;;7.60;99.90;;;;;;5103418;27;19907;-52
2022/10/12 05:58:39;;;;;;;;;;;7.70;99.90;;;;;;5076115;27;20676;-49
2022/10/12 06:01:09;;;;;;;;;;;7.70;99.90;;;;;;5033032;27;19944;-56
2022/10/12 06:03:35;;;;;;;;;;;7.70;99.90;;;;;;5058311;27;19907;-57
2022/10/12 06:06:01;;;;;;;;;;;7.70;99.90;;;;;;5116063;27;19969;-57
2022/10/12 06:08:27;;;;;;;;;;;7.70;99.90;;;;;;5065288;27;19903;-52
2022/10/12 06:10:53;;;;;;;;;;;7.70;99.90;;;;;;5121165;27;19921;-54
2022/10/12 06:13:19;;;;;;;;;;;7.70;99.90;;;;;;5061322;27;19907;-53
2022/10/12 06:15:45;;;;;;;;;;;7.70;99.90;;;;;;5124742;27;19914;-55
2022/10/12 06:18:10;;;;;;;;;;;7.80;99.90;;;;;;5086134;27;19907;-51
2022/10/12 06:20:36;;;;;;;;;;;7.70;99.90;;;;;;5124136;27;19972;-56
2022/10/12 06:23:01;;;;;;;;;;;7.80;99.90;;;;;;5063429;27;20352;-53
2022/10/12 06:25:27;;;;;;;;;;;7.80;99.90;;;;;;5118883;27;20744;-54
2022/10/12 06:27:52;;;;;;;;;;;7.80;99.90;;;;;;5076794;27;19920;-52
2022/10/12 06:30:18;;;;;;;;;;;7.80;99.90;;;;;;5105661;27;19947;-54
2022/10/12 06:32:43;;;;;;;;;;;7.90;99.90;;;;;;5091660;27;20267;-54
2022/10/12 06:35:10;;;;;;;;;;;8.00;99.90;;;;;;5090464;27;19911;-56
2022/10/12 06:37:35;;;;;;;;;;;8.00;99.90;;;;;;5103792;27;19911;-53
2022/10/12 06:40:01;;;;;;;;;;;8.00;99.90;;;;;;5077671;28;19915;-52
2022/10/12 06:42:26;;;;;;;;;;;8.10;99.90;;;;;;5115686;27;19907;-56
2022/10/12 06:44:52;;;;;;;;;;;8.20;99.90;;;;;;5065181;28;19907;-55
2022/10/12 06:47:17;;;;;;;;;;;8.20;99.90;;;;;;5115756;28;20014;-56
2022/10/12 06:49:42;;;;;;;;;;;8.20;99.90;;;;;;5066001;28;20018;-55
2022/10/12 06:52:08;;;;;;;;;;;8.20;99.90;;;;;;5123568;27;20468;-56
2022/10/12 06:54:33;;;;;;;;;;;8.30;99.90;;;;;;5056140;28;20553;-54
2022/10/12 06:57:01;;;;;;;;;;;8.30;99.90;;;;;;5020086;28;20446;-56
2022/10/12 06:59:26;;;;;;;;;;;8.30;99.90;;;;;;5085134;28;19907;-56
2022/10/12 07:01:52;;;;;;;;;;;8.40;99.90;;;;;;5020099;28;19916;-54
2022/10/12 07:04:18;;;;;;;;;;;8.40;99.90;;;;;;5075232;28;19930;-55
2022/10/12 07:06:43;;;;;;;;;;;8.40;99.90;;;;;;5029423;27;19973;-57
2022/10/12 07:09:09;;;;;;;;;;;8.40;99.90;;;;;;5039969;28;20272;-54
2022/10/12 07:11:34;;;;;;;;;;;8.40;99.90;;;;;;5101526;28;19993;-53
2022/10/12 07:14:00;;;;;;;;;;;8.40;99.90;;;;;;5102756;27;19976;-55
2022/10/12 07:16:25;;;;;;;;;;;8.50;99.90;;;;;;5056921;28;20316;-52
2022/10/12 07:18:51;;;;;;;;;;;8.50;99.90;;;;;;5037865;28;19928;-54
2022/10/12 07:21:16;;;;;;;;;;;8.50;99.90;;;;;;5070939;28;19909;-52
2022/10/12 07:23:42;;;;;;;;;;;8.50;99.90;;;;;;5027296;28;20358;-54
2022/10/12 07:26:08;;;;;;;;;;;8.50;99.90;;;;;;5077779;28;19978;-55
2022/10/12 07:28:34;;;;;;;;;;;8.50;99.90;;;;;;5026237;28;19932;-48
2022/10/12 07:31:00;;;;;;;;;;;8.50;99.90;;;;;;5078341;27;20446;-54
2022/10/12 07:33:46;;;;;;;;;;;8.60;99.90;;;;;;5019038;28;19909;-55
2022/10/12 07:36:14;;;;;;;;;;;8.60;99.90;;;;;;5063860;27;20018;-55
2022/10/12 07:38:43;;;;;;;;;;;8.60;99.90;;;;;;5124155;27;19907;-54
2022/10/12 07:41:12;;;;;;;;;;;8.70;99.90;;;;;;5057972;28;19907;-51
2022/10/12 07:43:38;;;;;;;;;;;8.70;99.90;;;;;;5123622;27;19914;-53
2022/10/12 07:46:03;;;;;;;;;;;8.80;99.90;;;;;;5059373;27;19913;-55
2022/10/12 07:48:28;;;;;;;;;;;8.80;99.90;;;;;;5127377;27;19949;-55
2022/10/12 07:50:54;;;;;;;;;;;8.80;99.90;;;;;;5069323;27;19920;-50
2022/10/12 07:53:19;;;;;;;;;;;8.80;99.90;;;;;;5119348;27;19911;-55
2022/10/12 07:55:45;;;;;;;;;;;8.80;99.90;;;;;;5083750;27;19909;-54
2022/10/12 07:58:11;;;;;;;;;;;8.80;99.90;;;;;;5104901;27;19911;-56
2022/10/12 08:00:37;;;;;;;;;;;8.80;99.90;;;;;;5097222;27;19974;-57
2022/10/12 08:03:03;;;;;;;;;;;8.90;99.90;;;;;;5092374;27;20293;-54
2022/10/12 08:05:28;;;;;;;;;;;8.90;99.90;;;;;;5109200;27;19919;-54
2022/10/12 08:07:54;;;;;;;;;;;8.90;99.90;;;;;;5078306;27;19958;-56
2022/10/12 08:10:20;;;;;;;;;;;9.00;99.90;;;;;;5119546;27;19911;-55
2022/10/12 08:12:46;;;;;;;;;;;9.00;99.90;;;;;;5068488;27;19937;-55
2022/10/12 08:15:12;;;;;;;;;;;9.00;99.90;;;;;;5118933;27;19907;-58
2022/10/12 08:17:37;;;;;;;;;;;9.00;99.90;;;;;;5063136;27;19918;-55
2022/10/12 08:20:03;;;;;;;;;;;9.10;99.90;;;;;;5022655;28;19913;-55
2022/10/12 08:22:29;;;;;;;;;;;9.10;99.90;;;;;;5087548;27;19916;-55
2022/10/12 08:24:54;;;;;;;;;;;9.20;99.90;;;;;;5022527;28;19909;-54
2022/10/12 08:27:19;;;;;;;;;;;9.30;99.90;;;;;;5060886;27;19909;-56
2022/10/12 08:29:45;;;;;;;;;;;9.40;99.90;;;;;;5022310;28;19905;-55
2022/10/12 08:32:11;;;;;;;;;;;9.40;99.90;;;;;;5074893;27;19915;-52
2022/10/12 08:34:36;;;;;;;;;;;9.50;99.90;;;;;;5034710;27;20271;-55
2022/10/12 08:37:02;;;;;;;;;;;9.60;99.90;;;;;;5061469;27;20003;-56
2022/10/12 08:39:27;;;;;;;;;;;9.80;99.90;;;;;;5047306;27;20000;-54
2022/10/12 08:42:07;;;;;;;;;;;9.90;99.90;;;;;;5047224;27;19917;-53
2022/10/12 08:44:51;;;;;;;;;;;9.90;99.90;;;;;;5052219;27;19920;-54
2022/10/12 08:47:19;;;;;;;;;;;10.00;99.90;;;;;;5056081;27;19907;-52
2022/10/12 08:49:45;;;;;;;;;;;10.10;99.90;;;;;;5048108;27;19909;-56
2022/10/12 08:52:32;;;;;;;;;;;10.10;99.90;;;;;;5044789;27;19919;-56
2022/10/12 08:55:00;;;;;;;;;;;10.10;99.90;;;;;;5047818;27;19961;-54
2022/10/12 08:57:26;;;;;;;;;;;10.10;99.90;;;;;;5047977;27;19907;-53
2022/10/12 08:59:51;;;;;;;;;;;10.10;99.90;;;;;;5063497;27;19911;-56
2022/10/12 09:02:35;;;;;;;;;;;10.10;99.90;;;;;;5046841;27;20022;-57
2022/10/12 09:05:09;;;;;;;;;;;10.10;99.90;;;;;;5061100;27;20356;-56
2022/10/12 09:07:42;;;;;;;;;;;10.10;99.90;;;;;;5039156;27;20023;-53
2022/10/12 09:10:25;;;;;;;;;;;10.10;99.90;;;;;;5062440;27;19926;-50
2022/10/12 09:13:09;;;;;;;;;;;10.10;99.90;;;;;;5045624;27;19918;-51
2022/10/12 09:15:48;;;;;;;;;;;10.00;99.90;;;;;;5052187;27;19956;-53
2022/10/12 09:18:17;;;;;;;;;;;10.10;99.90;;;;;;5032091;27;19931;-54
2022/10/12 09:20:45;;;;;;;;;;;10.00;99.90;;;;;;5022603;28;19909;-49
2022/10/12 09:23:11;;;;;;;;;;;10.10;99.90;;;;;;5065456;27;19919;-56
2022/10/12 09:25:41;;;;;;;;;;;10.10;99.90;;;;;;5083473;27;19903;-51
2022/10/12 09:28:19;;;;;;;;;;;10.10;99.90;;;;;;5114144;27;20289;-52
2022/10/12 09:30:52;;;;;;;;;;;10.10;99.90;;;;;;5080313;27;19915;-57
2022/10/12 09:33:31;;;;;;;;;;;10.10;99.90;;;;;;5112686;27;19914;-56
2022/10/12 09:35:56;;;;;;;;;;;10.20;99.90;;;;;;5080970;27;19907;-57
2022/10/12 09:38:23;;;;;;;;;;;10.30;99.90;;;;;;5117825;27;19907;-51
2022/10/12 09:40:48;;;;;;;;;;;10.30;99.90;;;;;;5068861;27;19914;-56
2022/10/12 09:43:14;;;;;;;;;;;10.30;99.90;;;;;;5116553;27;19907;-56
2022/10/12 09:45:43;;;;;;;;;;;10.30;99.90;;;;;;5067706;27;19914;-54
2022/10/12 09:48:10;;;;;;;;;;;10.40;99.90;;;;;;5122702;27;19908;-54
2022/10/12 09:50:44;;;;;;;;;;;10.40;99.90;;;;;;5062818;27;19938;-56
2022/10/12 09:53:22;;;;;;;;;;;10.40;99.90;;;;;;5125217;27;20314;-57
2022/10/12 09:56:08;;;;;;;;;;;10.50;99.90;;;;;;5064605;27;19911;-57
2022/10/12 09:58:49;;;;;;;;;;;10.50;99.90;;;;;;5118705;27;19919;-53
2022/10/12 10:01:20;;;;;;;;;;;10.60;99.90;;;;;;5077415;27;20049;-56
2022/10/12 10:04:04;;;;;;;;;;;10.60;99.90;;;;;;5027601;27;19913;-55
2022/10/12 10:06:29;;;;;;;;;;;10.70;99.90;;;;;;5077116;27;20435;-57
2022/10/12 10:08:57;;;;;;;;;;;10.70;99.90;;;;;;5026291;28;19913;-56
2022/10/12 10:11:24;;;;;;;;;;;10.80;99.90;;;;;;5073835;27;19917;-53
2022/10/12 10:13:51;;;;;;;;;;;10.80;99.90;;;;;;5021660;28;20025;-56
2022/10/12 10:16:17;;;;;;;;;;;10.90;99.90;;;;;;5085552;27;19913;-57
2022/10/12 10:18:43;;;;;;;;;;;11.00;99.90;;;;;;5064381;27;20346;-57
2022/10/12 10:21:11;;;;;;;;;;;11.00;99.90;;;;;;5058821;27;19909;-56
2022/10/12 10:23:50;;;;;;;;;;;11.10;99.90;;;;;;5124968;27;19913;-56
2022/10/12 10:26:18;;;;;;;;;;;11.10;99.90;;;;;;5058212;27;19918;-54
2022/10/12 10:28:44;;;;;;;;;;;11.20;99.90;;;;;;5001415;28;19914;-56
2022/10/12 10:31:14;;;;;;;;;;;11.30;99.90;;;;;;5067692;27;19922;-55
2022/10/12 10:33:40;;;;;;;;;;;11.40;99.90;;;;;;5028940;27;19916;-53
2022/10/12 10:36:14;;;;;;;;;;;11.50;99.90;;;;;;5062704;28;19916;-56
2022/10/12 10:38:58;;;;;;;;;;;11.50;99.90;;;;;;5036879;28;19916;-55
2022/10/12 10:41:25;;;;;;;;;;;11.60;99.90;;;;;;5067791;28;19907;-57
2022/10/12 10:43:51;;;;;;;;;;;11.60;99.90;;;;;;5036119;27;20297;-54
2022/10/12 10:46:25;;;;;;;;;;;11.70;99.90;;;;;;5055806;28;19964;-55
2022/10/12 10:48:57;;;;;;;;;;;11.80;99.90;;;;;;5044188;27;19920;-54
2022/10/12 10:51:37;;;;;;;;;;;11.80;99.90;;;;;;5052527;28;19915;-57
2022/10/12 10:54:12;;;;;;;;;;;11.90;99.90;;;;;;5041878;27;20314;-56
2022/10/12 10:56:37;;;;;;;;;;;12.00;99.90;;;;;;5055995;28;19915;-56
2022/10/12 10:59:23;;;;;;;;;;;12.20;99.90;;;;;;5050250;28;19909;-57
2022/10/12 11:01:51;;;;;;;;;;;12.30;99.90;;;;;;5035623;28;19991;-54
2022/10/12 11:04:23;;;;;;;;;;;12.40;99.90;;;;;;5102298;27;20319;-56
2022/10/12 11:06:53;;;;;;;;;;;12.50;99.90;;;;;;5095559;27;20396;-53
2022/10/12 11:09:21;;;;;;;;;;;12.60;99.90;;;;;;5090358;27;20590;-56
2022/10/12 11:11:52;;;;;;;;;;;12.70;99.90;;;;;;5103247;27;19946;-55
2022/10/12 11:14:19;;;;;;;;;;;12.70;99.90;;;;;;5082907;28;20005;-56
2022/10/12 11:16:53;;;;;;;;;;;12.80;99.90;;;;;;5111811;27;20343;-57
2022/10/12 11:19:39;;;;;;;;;;;12.80;99.90;;;;;;5022957;28;19945;-53
2022/10/12 11:22:09;;;;;;;;;;;12.90;99.90;;;;;;5039958;27;19917;-57
2022/10/12 11:24:41;;;;;;;;;;;13.00;99.90;;;;;;5067893;27;19961;-53
2022/10/12 11:27:30;;;;;;;;;;;13.00;99.90;;;;;;5035372;27;20080;-57
2022/10/12 11:29:57;;;;;;;;;;;13.10;99.90;;;;;;5050393;27;19997;-55
2022/10/12 11:32:26;;;;;;;;;;;13.10;99.90;;;;;;5039197;27;20246;-56
2022/10/12 11:34:53;;;;;;;;;;;13.00;99.90;;;;;;5070937;27;20005;-52
2022/10/12 11:37:39;;;;;;;;;;;13.00;99.90;;;;;;5029526;27;19909;-56
2022/10/12 11:40:24;;;;;;;;;;;13.00;99.90;;;;;;5075128;27;20185;-55
2022/10/12 11:42:51;;;;;;;;;;;13.10;99.90;;;;;;5106696;27;19907;-55
2022/10/12 11:45:40;;;;;;;;;;;13.10;99.90;;;;;;5083619;27;19911;-56
2022/10/12 11:48:11;;;;;;;;;;;13.20;99.90;;;;;;5093438;27;19909;-57
2022/10/12 11:50:38;;;;;;;;;;;13.30;99.90;;;;;;5090098;27;19922;-55
2022/10/12 11:53:22;;;;;;;;;;;13.30;99.90;;;;;;5110894;27;20139;-60
2022/10/12 11:55:48;;;;;;;;;;;13.40;99.90;;;;;;5091060;27;19907;-57
2022/10/12 11:58:28;;;;;;;;;;;13.40;99.90;;;;;;5110165;27;19912;-57
2022/10/12 12:00:59;;;;;;;;;;;13.50;99.90;;;;;;5088142;27;19914;-55
2022/10/12 12:03:25;;;;;;;;;;;13.60;99.90;;;;;;5109869;27;19907;-57
2022/10/12 12:05:50;;;;;;;;;;;13.70;99.90;;;;;;5078607;27;19972;-56
2022/10/12 12:08:34;;;;;;;;;;;13.80;99.90;;;;;;5119108;27;20433;-57
2022/10/12 12:11:18;;;;;;;;;;;13.80;99.90;;;;;;5067175;27;19918;-58
2022/10/12 12:13:43;;;;;;;;;;;13.80;99.90;;;;;;5111839;27;19941;-54
2022/10/12 12:16:12;;;;;;;;;;;13.80;99.90;;;;;;5076645;27;19915;-56
2022/10/12 12:18:56;;;;;;;;;;;13.90;99.90;;;;;;5115788;27;19972;-53
2022/10/12 12:21:21;;;;;;;;;;;13.90;99.90;;;;;;5068640;27;20083;-55
2022/10/12 12:23:53;;;;;;;;;;;14.00;99.90;;;;;;5119795;27;20001;-52
2022/10/12 12:26:23;;;;;;;;;;;14.00;99.90;;;;;;5057369;27;19907;-55
2022/10/12 12:29:07;;;;;;;;;;;14.10;99.90;;;;;;5120711;27;19916;-55
2022/10/12 12:31:33;;;;;;;;;;;14.10;99.90;;;;;;5061276;27;19920;-56
2022/10/12 12:34:05;;;;;;;;;;;14.20;99.90;;;;;;5118461;27;19913;-54
2022/10/12 12:36:33;;;;;;;;;;;14.30;99.90;;;;;;5067837;27;19907;-55
2022/10/12 12:38:59;;;;;;;;;;;14.40;99.90;;;;;;5118641;27;19907;-56
2022/10/12 12:41:45;;;;;;;;;;;14.40;99.90;;;;;;5067152;27;19907;-56
2022/10/12 12:44:30;;;;;;;;;;;14.50;99.90;;;;;;5118627;27;20646;-56
2022/10/12 12:46:55;;;;;;;;;;;14.40;99.90;;;;;;5067115;27;20480;-56
2022/10/12 12:49:25;;;;;;;;;;;14.50;99.90;;;;;;5118092;27;19990;-57
2022/10/12 12:51:53;;;;;;;;;;;14.60;99.90;;;;;;5067934;27;20215;-55
2022/10/12 12:54:20;;;;;;;;;;;14.60;99.90;;;;;;5124532;27;20401;-57
2022/10/12 12:56:49;;;;;;;;;;;14.70;99.90;;;;;;5062548;27;19914;-55
2022/10/12 12:59:14;;;;;;;;;;;14.80;99.90;;;;;;5108905;27;20382;-59
2022/10/12 13:01:54;;;;;;;;;;;14.80;99.90;;;;;;5087767;27;19907;-56
2022/10/12 13:04:19;;;;;;;;;;;14.90;99.90;;;;;;5021821;28;19909;-57
2022/10/12 13:07:03;;;;;;;;;;;15.00;99.90;;;;;;5086645;27;19963;-57
2022/10/12 13:09:37;;;;;;;;;;;15.00;99.90;;;;;;5022414;28;19976;-57
2022/10/12 13:12:07;;;;;;;;;;;15.20;99.90;;;;;;5087204;27;19915;-54
2022/10/12 13:14:33;;;;;;;;;;;15.20;99.90;;;;;;5021096;28;19916;-56
2022/10/12 13:16:58;;;;;;;;;;;15.20;99.90;;;;;;5086544;27;20413;-56
2022/10/12 13:19:24;;;;;;;;;;;15.30;99.90;;;;;;5084985;27;19964;-55
2022/10/12 13:21:51;;;;;;;;;;;15.30;99.90;;;;;;5072927;27;20644;-56
2022/10/12 13:24:21;;;;;;;;;;;15.40;99.90;;;;;;5113240;27;19945;-57
2022/10/12 13:27:13;;;;;;;;;;;15.40;99.90;;;;;;5082879;27;19909;-56
2022/10/12 13:29:42;;;;;;;;;;;15.40;99.90;;;;;;5019389;28;19909;-56
2022/10/12 13:32:15;;;;;;;;;;;15.40;99.90;;;;;;5071120;27;19922;-54
2022/10/12 13:34:42;;;;;;;;;;;15.40;99.90;;;;;;5030622;27;20016;-58
2022/10/12 13:37:12;;;;;;;;;;;15.40;99.90;;;;;;5062942;27;19951;-60
2022/10/12 13:39:39;;;;;;;;;;;15.40;99.90;;;;;;5040642;27;19912;-55
2022/10/12 13:42:05;;;;;;;;;;;15.30;99.90;;;;;;5054005;27;20504;-53
2022/10/12 13:44:35;;;;;;;;;;;15.30;99.90;;;;;;5052910;27;19909;-56
2022/10/12 13:47:03;;;;;;;;;;;15.20;99.90;;;;;;5044414;27;19907;-57
2022/10/12 13:49:30;;;;;;;;;;;15.10;99.90;;;;;;5061412;27;19916;-52
2022/10/12 13:52:14;;;;;;;;;;;15.10;99.90;;;;;;5043469;27;19915;-55
2022/10/12 13:54:47;;;;;;;;;;;15.10;99.90;;;;;;5086248;27;20030;-56
2022/10/12 13:57:28;;;;;;;;;;;15.00;99.90;;;;;;5107751;27;19914;-52
2022/10/12 14:00:02;;;;;;;;;;;15.00;99.90;;;;;;5088008;27;19907;-54
2022/10/12 14:02:29;;;;;;;;;;;15.00;99.90;;;;;;5105365;27;20714;-56
2022/10/12 14:04:55;;;;;;;;;;;15.10;99.90;;;;;;5080370;27;19915;-51
2022/10/12 14:07:27;;;;;;;;;;;15.10;99.90;;;;;;5117095;27;19907;-56
2022/10/12 14:09:57;;;;;;;;;;;15.10;99.90;;;;;;5072054;27;20282;-55
2022/10/12 14:12:23;;;;;;;;;;;15.10;99.90;;;;;;5116924;27;19961;-58
2022/10/12 14:14:49;;;;;;;;;;;15.10;99.90;;;;;;5066423;27;19949;-52
2022/10/12 14:17:15;;;;;;;;;;;15.10;99.90;;;;;;5115485;27;19908;-54
2022/10/12 14:19:45;;;;;;;;;;;15.10;99.90;;;;;;5109997;27;19914;-53
2022/10/12 14:22:22;;;;;;;;;;;15.10;99.90;;;;;;5120009;27;19954;-57
2022/10/12 14:24:49;;;;;;;;;;;15.10;99.90;;;;;;5063807;27;19956;-55
2022/10/12 14:27:20;;;;;;;;;;;15.20;99.90;;;;;;5123992;27;20392;-52
2022/10/12 14:29:46;;;;;;;;;;;15.20;99.90;;;;;;5059123;27;19907;-51
2022/10/12 14:32:11;;;;;;;;;;;15.30;99.90;;;;;;5123605;27;20278;-51
2022/10/12 14:34:47;;;;;;;;;;;15.30;99.90;;;;;;5059012;27;20457;-55
2022/10/12 14:37:15;;;;;;;;;;;15.30;99.90;;;;;;5123533;27;19908;-49